Frailey, Pennsylvania
Current Conditions -  °F | °C
As of 8:58 PM on Wednesday 17 Dec 2014 (Local Time) from KMUI Reporting Station
Overcast Overcast  
Wind Chill: 30°   Ceiling: 4000
Heat Index: 37°   Visibility: 10mi
Dew Point: 22°   Wind: 10mph
Humidity: 54%   Direction: 290°WNW
Pressure: 30.01"   Gusts: 17mph
Location:  40.6079°N, 76.4334°W
Report Text: KMUI 180158Z AUTO 29009G15KT 10SM OVC040 03/M06 A3001 RMK AO2 SLP169 T00301056
Loading
Personal Weather Stations






























Interactive Weather Map New forecast layout! Learn more

10-Day Weather Forecast

Advertisements
Track Severe Weather on mobile